sensor_id;sensor_type;location;lat;lon;timestamp;temperature;humidity
60033;DHT22;45905;50.570;10.428;2022-12-18T00:01:33;-9.30;95.40
60033;DHT22;45905;50.570;10.428;2022-12-18T00:04:07;-9.30;95.30
60033;DHT22;45905;50.570;10.428;2022-12-18T00:06:41;-9.30;95.30
60033;DHT22;45905;50.570;10.428;2022-12-18T00:09:10;-9.40;95.40
60033;DHT22;45905;50.570;10.428;2022-12-18T00:11:37;-9.40;95.30
60033;DHT22;45905;50.570;10.428;2022-12-18T00:14:04;-9.40;95.30
60033;DHT22;45905;50.570;10.428;2022-12-18T00:16:31;-9.40;95.30
60033;DHT22;45905;50.570;10.428;2022-12-18T00:19:02;-9.40;95.30
60033;DHT22;45905;50.570;10.428;2022-12-18T00:21:31;-9.40;95.30
60033;DHT22;45905;50.570;10.428;2022-12-18T00:24:00;-9.50;95.20
60033;DHT22;45905;50.570;10.428;2022-12-18T00:26:29;-9.50;95.20
60033;DHT22;45905;50.570;10.428;2022-12-18T00:29:10;-9.50;95.10
60033;DHT22;45905;50.570;10.428;2022-12-18T00:31:42;-9.50;95.20
60033;DHT22;45905;50.570;10.428;2022-12-18T00:34:12;-9.50;95.30
60033;DHT22;45905;50.570;10.428;2022-12-18T00:36:40;-9.50;95.20
60033;DHT22;45905;50.570;10.428;2022-12-18T00:39:08;-9.50;95.20
60033;DHT22;45905;50.570;10.428;2022-12-18T00:41:37;-9.50;95.30
60033;DHT22;45905;50.570;10.428;2022-12-18T00:44:24;-9.60;95.30
60033;DHT22;45905;50.570;10.428;2022-12-18T00:46:51;-9.60;95.40
60033;DHT22;45905;50.570;10.428;2022-12-18T00:49:19;-9.60;95.40
60033;DHT22;45905;50.570;10.428;2022-12-18T00:51:47;-9.60;95.40
60033;DHT22;45905;50.570;10.428;2022-12-18T00:54:16;-9.60;95.40
60033;DHT22;45905;50.570;10.428;2022-12-18T00:56:44;-9.60;95.40
60033;DHT22;45905;50.570;10.428;2022-12-18T00:59:18;-9.60;95.30
60033;DHT22;45905;50.570;10.428;2022-12-18T01:01:46;-9.70;95.00
60033;DHT22;45905;50.570;10.428;2022-12-18T01:04:14;-9.90;94.90
60033;DHT22;45905;50.570;10.428;2022-12-18T01:06:44;-10.00;95.40
60033;DHT22;45905;50.570;10.428;2022-12-18T01:09:11;-10.00;95.70
60033;DHT22;45905;50.570;10.428;2022-12-18T01:11:39;-10.00;95.70
60033;DHT22;45905;50.570;10.428;2022-12-18T01:14:06;-10.00;95.60
60033;DHT22;45905;50.570;10.428;2022-12-18T01:16:36;-10.00;95.70
60033;DHT22;45905;50.570;10.428;2022-12-18T01:19:04;-10.00;95.80
60033;DHT22;45905;50.570;10.428;2022-12-18T01:21:31;-10.00;95.70
60033;DHT22;45905;50.570;10.428;2022-12-18T01:24:03;-10.00;95.70
60033;DHT22;45905;50.570;10.428;2022-12-18T01:26:30;-9.90;95.70
60033;DHT22;45905;50.570;10.428;2022-12-18T01:28:58;-9.90;95.60
60033;DHT22;45905;50.570;10.428;2022-12-18T01:31:31;-9.90;95.60
60033;DHT22;45905;50.570;10.428;2022-12-18T01:34:03;-9.90;95.50
60033;DHT22;45905;50.570;10.428;2022-12-18T01:36:35;-9.90;95.50
60033;DHT22;45905;50.570;10.428;2022-12-18T01:39:12;-9.90;95.50
60033;DHT22;45905;50.570;10.428;2022-12-18T01:41:42;-9.90;95.40
60033;DHT22;45905;50.570;10.428;2022-12-18T01:47:33;-9.90;95.40
60033;DHT22;45905;50.570;10.428;2022-12-18T01:53:18;-9.90;95.40
60033;DHT22;45905;50.570;10.428;2022-12-18T01:55:53;-10.00;95.10
60033;DHT22;45905;50.570;10.428;2022-12-18T01:58:39;-10.20;95.00
60033;DHT22;45905;50.570;10.428;2022-12-18T02:01:13;-10.20;95.50
60033;DHT22;45905;50.570;10.428;2022-12-18T02:03:42;-10.20;95.80
60033;DHT22;45905;50.570;10.428;2022-12-18T02:14:45;-10.10;95.70
60033;DHT22;45905;50.570;10.428;2022-12-18T02:17:24;-10.10;95.60
60033;DHT22;45905;50.570;10.428;2022-12-18T02:20:12;-10.10;95.60
60033;DHT22;45905;50.570;10.428;2022-12-18T02:23:01;-10.10;95.50
60033;DHT22;45905;50.570;10.428;2022-12-18T02:28:33;-10.10;95.60
60033;DHT22;45905;50.570;10.428;2022-12-18T02:31:09;-10.10;95.60
60033;DHT22;45905;50.570;10.428;2022-12-18T02:33:40;-10.10;95.60
60033;DHT22;45905;50.570;10.428;2022-12-18T02:36:12;-10.10;95.60
60033;DHT22;45905;50.570;10.428;2022-12-18T02:38:44;-10.10;95.40
60033;DHT22;45905;50.570;10.428;2022-12-18T02:41:16;-10.10;95.30
60033;DHT22;45905;50.570;10.428;2022-12-18T02:43:56;-10.20;95.40
60033;DHT22;45905;50.570;10.428;2022-12-18T02:46:36;-10.10;95.40
60033;DHT22;45905;50.570;10.428;2022-12-18T02:57:58;-10.30;95.10
60033;DHT22;45905;50.570;10.428;2022-12-18T03:00:43;-10.30;95.10
60033;DHT22;45905;50.570;10.428;2022-12-18T03:03:50;-10.30;95.10
60033;DHT22;45905;50.570;10.428;2022-12-18T03:06:44;-10.30;95.20
60033;DHT22;45905;50.570;10.428;2022-12-18T03:09:30;-10.30;95.20
60033;DHT22;45905;50.570;10.428;2022-12-18T03:12:14;-10.30;95.20
60033;DHT22;45905;50.570;10.428;2022-12-18T03:15:16;-10.30;95.20
60033;DHT22;45905;50.570;10.428;2022-12-18T03:18:03;-10.30;95.20
60033;DHT22;45905;50.570;10.428;2022-12-18T03:20:36;-10.30;95.10
60033;DHT22;45905;50.570;10.428;2022-12-18T03:23:21;-10.30;95.10
60033;DHT22;45905;50.570;10.428;2022-12-18T03:26:08;-10.30;95.10
60033;DHT22;45905;50.570;10.428;2022-12-18T03:28:44;-10.30;95.10
60033;DHT22;45905;50.570;10.428;2022-12-18T03:31:14;-10.30;95.30
60033;DHT22;45905;50.570;10.428;2022-12-18T03:34:26;-10.30;95.20
60033;DHT22;45905;50.570;10.428;2022-12-18T03:36:48;-10.40;95.00
60033;DHT22;45905;50.570;10.428;2022-12-18T03:39:16;-10.40;94.90
60033;DHT22;45905;50.570;10.428;2022-12-18T03:45:28;-10.40;94.90
60033;DHT22;45905;50.570;10.428;2022-12-18T03:50:59;-10.50;95.00
60033;DHT22;45905;50.570;10.428;2022-12-18T03:53:43;-10.40;95.00
60033;DHT22;45905;50.570;10.428;2022-12-18T03:56:21;-10.50;95.00
60033;DHT22;45905;50.570;10.428;2022-12-18T03:58:52;-10.50;95.00
60033;DHT22;45905;50.570;10.428;2022-12-18T04:01:37;-10.50;94.70
60033;DHT22;45905;50.570;10.428;2022-12-18T04:04:10;-10.60;94.60
60033;DHT22;45905;50.570;10.428;2022-12-18T04:06:40;-10.70;95.00
60033;DHT22;45905;50.570;10.428;2022-12-18T04:09:11;-10.60;95.20
60033;DHT22;45905;50.570;10.428;2022-12-18T04:11:43;-10.60;95.20
60033;DHT22;45905;50.570;10.428;2022-12-18T04:14:13;-10.60;95.40
60033;DHT22;45905;50.570;10.428;2022-12-18T04:16:45;-10.60;95.00
60033;DHT22;45905;50.570;10.428;2022-12-18T04:19:15;-10.60;95.20
60033;DHT22;45905;50.570;10.428;2022-12-18T04:21:44;-10.60;94.90
60033;DHT22;45905;50.570;10.428;2022-12-18T04:24:13;-10.60;94.80
60033;DHT22;45905;50.570;10.428;2022-12-18T04:26:47;-10.60;94.80
60033;DHT22;45905;50.570;10.428;2022-12-18T04:29:23;-10.60;94.90
60033;DHT22;45905;50.570;10.428;2022-12-18T04:31:50;-10.60;94.90
60033;DHT22;45905;50.570;10.428;2022-12-18T04:34:18;-10.60;94.90
60033;DHT22;45905;50.570;10.428;2022-12-18T04:36:49;-10.70;94.80
60033;DHT22;45905;50.570;10.428;2022-12-18T04:39:17;-10.70;94.70
60033;DHT22;45905;50.570;10.428;2022-12-18T04:41:45;-10.70;95.10
60033;DHT22;45905;50.570;10.428;2022-12-18T04:44:13;-10.70;94.90
60033;DHT22;45905;50.570;10.428;2022-12-18T04:46:40;-10.70;94.90
60033;DHT22;45905;50.570;10.428;2022-12-18T04:49:07;-10.70;94.80
60033;DHT22;45905;50.570;10.428;2022-12-18T04:51:34;-10.70;94.70
60033;DHT22;45905;50.570;10.428;2022-12-18T04:54:02;-10.70;94.50
60033;DHT22;45905;50.570;10.428;2022-12-18T04:56:31;-10.70;94.70
60033;DHT22;45905;50.570;10.428;2022-12-18T04:58:58;-10.80;94.40
60033;DHT22;45905;50.570;10.428;2022-12-18T05:01:25;-10.80;94.40
60033;DHT22;45905;50.570;10.428;2022-12-18T05:04:01;-10.80;94.50
60033;DHT22;45905;50.570;10.428;2022-12-18T05:06:28;-10.80;94.60
60033;DHT22;45905;50.570;10.428;2022-12-18T05:08:56;-10.70;94.70
60033;DHT22;45905;50.570;10.428;2022-12-18T05:11:23;-10.90;94.60
60033;DHT22;45905;50.570;10.428;2022-12-18T05:13:50;-10.90;94.50
60033;DHT22;45905;50.570;10.428;2022-12-18T05:16:17;-10.90;94.40
60033;DHT22;45905;50.570;10.428;2022-12-18T05:18:44;-11.00;94.50
60033;DHT22;45905;50.570;10.428;2022-12-18T05:21:12;-11.10;94.70
60033;DHT22;45905;50.570;10.428;2022-12-18T05:23:39;-11.10;94.70
60033;DHT22;45905;50.570;10.428;2022-12-18T05:26:07;-11.10;94.70
60033;DHT22;45905;50.570;10.428;2022-12-18T05:28:35;-11.10;94.70
60033;DHT22;45905;50.570;10.428;2022-12-18T05:31:03;-11.10;94.70
60033;DHT22;45905;50.570;10.428;2022-12-18T05:33:33;-11.10;94.80
60033;DHT22;45905;50.570;10.428;2022-12-18T05:36:03;-11.00;94.90
60033;DHT22;45905;50.570;10.428;2022-12-18T05:38:34;-11.10;94.80
60033;DHT22;45905;50.570;10.428;2022-12-18T05:41:03;-11.00;94.80
60033;DHT22;45905;50.570;10.428;2022-12-18T05:43:31;-11.00;94.90
60033;DHT22;45905;50.570;10.428;2022-12-18T05:46:21;-11.00;94.90
60033;DHT22;45905;50.570;10.428;2022-12-18T05:48:48;-11.00;94.80
60033;DHT22;45905;50.570;10.428;2022-12-18T05:51:18;-11.00;94.70
60033;DHT22;45905;50.570;10.428;2022-12-18T05:53:48;-11.00;94.70
60033;DHT22;45905;50.570;10.428;2022-12-18T05:56:18;-11.00;94.60
60033;DHT22;45905;50.570;10.428;2022-12-18T05:58:47;-11.00;94.50
60033;DHT22;45905;50.570;10.428;2022-12-18T06:01:22;-11.10;94.60
60033;DHT22;45905;50.570;10.428;2022-12-18T06:03:53;-11.10;94.80
60033;DHT22;45905;50.570;10.428;2022-12-18T06:06:23;-11.10;94.60
60033;DHT22;45905;50.570;10.428;2022-12-18T06:08:54;-11.10;94.70
60033;DHT22;45905;50.570;10.428;2022-12-18T06:11:24;-11.10;94.70
60033;DHT22;45905;50.570;10.428;2022-12-18T06:13:54;-11.10;94.70
60033;DHT22;45905;50.570;10.428;2022-12-18T06:16:25;-11.10;94.80
60033;DHT22;45905;50.570;10.428;2022-12-18T06:18:56;-11.10;94.70
60033;DHT22;45905;50.570;10.428;2022-12-18T06:21:25;-11.10;94.70
60033;DHT22;45905;50.570;10.428;2022-12-18T06:23:53;-11.10;94.60
60033;DHT22;45905;50.570;10.428;2022-12-18T06:26:21;-11.10;94.60
60033;DHT22;45905;50.570;10.428;2022-12-18T06:28:54;-11.10;94.90
60033;DHT22;45905;50.570;10.428;2022-12-18T06:31:21;-11.10;94.70
60033;DHT22;45905;50.570;10.428;2022-12-18T06:33:48;-11.10;94.60
60033;DHT22;45905;50.570;10.428;2022-12-18T06:36:15;-11.10;94.70
60033;DHT22;45905;50.570;10.428;2022-12-18T06:38:44;-11.10;94.70
60033;DHT22;45905;50.570;10.428;2022-12-18T06:41:14;-11.10;94.70
60033;DHT22;45905;50.570;10.428;2022-12-18T06:43:43;-11.10;94.70
60033;DHT22;45905;50.570;10.428;2022-12-18T06:46:10;-11.10;94.50
60033;DHT22;45905;50.570;10.428;2022-12-18T06:48:39;-11.20;94.40
60033;DHT22;45905;50.570;10.428;2022-12-18T06:51:06;-11.20;94.40
60033;DHT22;45905;50.570;10.428;2022-12-18T06:53:33;-11.20;94.50
60033;DHT22;45905;50.570;10.428;2022-12-18T06:56:06;-11.20;94.50
60033;DHT22;45905;50.570;10.428;2022-12-18T06:58:37;-11.20;94.50
60033;DHT22;45905;50.570;10.428;2022-12-18T07:01:07;-11.20;94.50
60033;DHT22;45905;50.570;10.428;2022-12-18T07:03:38;-11.20;94.40
60033;DHT22;45905;50.570;10.428;2022-12-18T07:06:13;-11.30;94.30
60033;DHT22;45905;50.570;10.428;2022-12-18T07:08:42;-11.30;94.40
60033;DHT22;45905;50.570;10.428;2022-12-18T07:11:09;-11.30;94.50
60033;DHT22;45905;50.570;10.428;2022-12-18T07:13:36;-11.30;94.50
60033;DHT22;45905;50.570;10.428;2022-12-18T07:16:09;-11.30;94.50
60033;DHT22;45905;50.570;10.428;2022-12-18T07:18:46;-11.30;94.60
60033;DHT22;45905;50.570;10.428;2022-12-18T07:21:16;-11.20;95.00
60033;DHT22;45905;50.570;10.428;2022-12-18T07:23:45;-11.30;94.60
60033;DHT22;45905;50.570;10.428;2022-12-18T07:26:18;-11.30;94.60
60033;DHT22;45905;50.570;10.428;2022-12-18T07:28:47;-11.30;94.60
60033;DHT22;45905;50.570;10.428;2022-12-18T07:31:17;-11.30;94.60
60033;DHT22;45905;50.570;10.428;2022-12-18T07:33:48;-11.30;94.70
60033;DHT22;45905;50.570;10.428;2022-12-18T07:36:16;-11.30;94.70
60033;DHT22;45905;50.570;10.428;2022-12-18T07:38:43;-11.30;94.60
60033;DHT22;45905;50.570;10.428;2022-12-18T07:41:13;-11.30;94.60
60033;DHT22;45905;50.570;10.428;2022-12-18T07:43:41;-11.30;94.60
60033;DHT22;45905;50.570;10.428;2022-12-18T07:46:09;-11.30;94.60
60033;DHT22;45905;50.570;10.428;2022-12-18T07:48:40;-11.40;94.70
60033;DHT22;45905;50.570;10.428;2022-12-18T07:51:08;-11.40;94.70
60033;DHT22;45905;50.570;10.428;2022-12-18T07:53:40;-11.40;94.80
60033;DHT22;45905;50.570;10.428;2022-12-18T07:56:10;-11.40;94.90
60033;DHT22;45905;50.570;10.428;2022-12-18T07:58:56;-11.40;94.90
60033;DHT22;45905;50.570;10.428;2022-12-18T08:01:28;-11.30;95.10
60033;DHT22;45905;50.570;10.428;2022-12-18T08:03:56;-11.30;95.20
60033;DHT22;45905;50.570;10.428;2022-12-18T08:06:24;-11.30;95.10
60033;DHT22;45905;50.570;10.428;2022-12-18T08:08:52;-11.30;95.10
60033;DHT22;45905;50.570;10.428;2022-12-18T08:11:21;-11.30;95.00
60033;DHT22;45905;50.570;10.428;2022-12-18T08:13:51;-11.30;95.10
60033;DHT22;45905;50.570;10.428;2022-12-18T08:16:19;-11.30;95.10
60033;DHT22;45905;50.570;10.428;2022-12-18T08:18:46;-11.20;95.20
60033;DHT22;45905;50.570;10.428;2022-12-18T08:21:21;-11.20;95.20
60033;DHT22;45905;50.570;10.428;2022-12-18T08:23:51;-11.20;95.10
60033;DHT22;45905;50.570;10.428;2022-12-18T08:26:21;-11.30;95.00
60033;DHT22;45905;50.570;10.428;2022-12-18T08:28:50;-11.30;95.10
60033;DHT22;45905;50.570;10.428;2022-12-18T08:31:18;-11.30;95.30
60033;DHT22;45905;50.570;10.428;2022-12-18T08:33:49;-11.30;95.50
60033;DHT22;45905;50.570;10.428;2022-12-18T08:36:17;-11.30;95.60
60033;DHT22;45905;50.570;10.428;2022-12-18T08:38:45;-11.20;95.60
60033;DHT22;45905;50.570;10.428;2022-12-18T08:41:15;-11.20;95.50
60033;DHT22;45905;50.570;10.428;2022-12-18T08:43:43;-11.20;95.60
60033;DHT22;45905;50.570;10.428;2022-12-18T08:46:34;-11.20;95.60
60033;DHT22;45905;50.570;10.428;2022-12-18T08:49:06;-11.20;95.70
60033;DHT22;45905;50.570;10.428;2022-12-18T08:51:35;-11.20;95.80
60033;DHT22;45905;50.570;10.428;2022-12-18T08:54:03;-11.20;96.00
60033;DHT22;45905;50.570;10.428;2022-12-18T08:56:32;-11.20;96.00
60033;DHT22;45905;50.570;10.428;2022-12-18T08:58:59;-11.30;96.00
60033;DHT22;45905;50.570;10.428;2022-12-18T09:01:27;-11.30;96.30
60033;DHT22;45905;50.570;10.428;2022-12-18T09:03:55;-11.20;96.40
60033;DHT22;45905;50.570;10.428;2022-12-18T09:06:23;-11.20;96.50
60033;DHT22;45905;50.570;10.428;2022-12-18T09:08:50;-11.10;96.60
60033;DHT22;45905;50.570;10.428;2022-12-18T09:11:23;-11.10;96.60
60033;DHT22;45905;50.570;10.428;2022-12-18T09:13:53;-11.10;96.50
60033;DHT22;45905;50.570;10.428;2022-12-18T09:16:21;-11.00;96.60
60033;DHT22;45905;50.570;10.428;2022-12-18T09:18:58;-11.00;96.80
60033;DHT22;45905;50.570;10.428;2022-12-18T09:21:28;-10.90;96.80
60033;DHT22;45905;50.570;10.428;2022-12-18T09:24:03;-10.90;96.80
60033;DHT22;45905;50.570;10.428;2022-12-18T09:26:35;-10.90;96.80
60033;DHT22;45905;50.570;10.428;2022-12-18T09:29:03;-10.90;96.80
60033;DHT22;45905;50.570;10.428;2022-12-18T09:31:30;-10.90;96.80
60033;DHT22;45905;50.570;10.428;2022-12-18T09:33:57;-10.80;96.90
60033;DHT22;45905;50.570;10.428;2022-12-18T09:36:25;-10.80;96.90
60033;DHT22;45905;50.570;10.428;2022-12-18T09:38:52;-10.80;97.00
60033;DHT22;45905;50.570;10.428;2022-12-18T09:44:39;-10.70;97.30
60033;DHT22;45905;50.570;10.428;2022-12-18T09:47:27;-10.70;97.30
60033;DHT22;45905;50.570;10.428;2022-12-18T09:50:01;-10.60;97.40
60033;DHT22;45905;50.570;10.428;2022-12-18T09:52:40;-10.60;97.50
60033;DHT22;45905;50.570;10.428;2022-12-18T09:57:51;-10.40;98.10
60033;DHT22;45905;50.570;10.428;2022-12-18T10:00:23;-10.40;97.90
60033;DHT22;45905;50.570;10.428;2022-12-18T10:02:55;-10.30;97.90
60033;DHT22;45905;50.570;10.428;2022-12-18T10:08:57;-10.20;98.20
60033;DHT22;45905;50.570;10.428;2022-12-18T10:14:34;-10.10;98.70
60033;DHT22;45905;50.570;10.428;2022-12-18T10:17:26;-10.00;99.10
60033;DHT22;45905;50.570;10.428;2022-12-18T10:26:07;-9.60;99.90
60033;DHT22;45905;50.570;10.428;2022-12-18T10:28:34;-9.50;99.90
60033;DHT22;45905;50.570;10.428;2022-12-18T10:31:16;-9.40;99.90
60033;DHT22;45905;50.570;10.428;2022-12-18T10:33:46;-9.20;99.90
60033;DHT22;45905;50.570;10.428;2022-12-18T10:36:13;-9.10;99.90
60033;DHT22;45905;50.570;10.428;2022-12-18T10:38:41;-9.00;99.90
60033;DHT22;45905;50.570;10.428;2022-12-18T10:43:47;-8.70;99.90
60033;DHT22;45905;50.570;10.428;2022-12-18T10:46:20;-8.60;99.90
60033;DHT22;45905;50.570;10.428;2022-12-18T10:54:18;-8.30;99.90
60033;DHT22;45905;50.570;10.428;2022-12-18T10:56:49;-8.20;99.90
60033;DHT22;45905;50.570;10.428;2022-12-18T10:59:17;-8.10;99.90
60033;DHT22;45905;50.570;10.428;2022-12-18T11:01:56;-7.90;99.90
60033;DHT22;45905;50.570;10.428;2022-12-18T11:04:27;-7.80;99.90
60033;DHT22;45905;50.570;10.428;2022-12-18T11:07:07;-7.70;99.90
60033;DHT22;45905;50.570;10.428;2022-12-18T11:09:39;-7.60;99.90
60033;DHT22;45905;50.570;10.428;2022-12-18T11:12:17;-7.50;99.90
60033;DHT22;45905;50.570;10.428;2022-12-18T11:14:48;-7.40;99.90
60033;DHT22;45905;50.570;10.428;2022-12-18T11:17:29;-7.30;99.90
60033;DHT22;45905;50.570;10.428;2022-12-18T11:20:03;-7.10;99.90
60033;DHT22;45905;50.570;10.428;2022-12-18T11:22:35;-6.90;99.90
60033;DHT22;45905;50.570;10.428;2022-12-18T11:25:18;-6.80;99.90
60033;DHT22;45905;50.570;10.428;2022-12-18T11:28:02;-6.70;99.90
60033;DHT22;45905;50.570;10.428;2022-12-18T11:30:33;-6.60;99.90
60033;DHT22;45905;50.570;10.428;2022-12-18T11:33:19;-6.40;99.90
60033;DHT22;45905;50.570;10.428;2022-12-18T11:35:51;-6.30;99.90
60033;DHT22;45905;50.570;10.428;2022-12-18T11:38:24;-6.30;99.90
60033;DHT22;45905;50.570;10.428;2022-12-18T11:50:24;-5.80;99.90
60033;DHT22;45905;50.570;10.428;2022-12-18T11:52:55;-5.70;99.90
60033;DHT22;45905;50.570;10.428;2022-12-18T11:58:47;-5.60;99.90
60033;DHT22;45905;50.570;10.428;2022-12-18T12:15:30;-5.30;99.90
60033;DHT22;45905;50.570;10.428;2022-12-18T12:18:30;-5.20;99.90
60033;DHT22;45905;50.570;10.428;2022-12-18T12:21:41;-5.20;99.90
60033;DHT22;45905;50.570;10.428;2022-12-18T12:35:48;-5.00;99.90
60033;DHT22;45905;50.570;10.428;2022-12-18T12:38:24;-5.00;99.90
60033;DHT22;45905;50.570;10.428;2022-12-18T12:41:04;-4.90;99.90
60033;DHT22;45905;50.570;10.428;2022-12-18T12:43:57;-4.90;99.90
60033;DHT22;45905;50.570;10.428;2022-12-18T12:46:32;-4.90;99.90
60033;DHT22;45905;50.570;10.428;2022-12-18T12:49:13;-4.80;99.90
60033;DHT22;45905;50.570;10.428;2022-12-18T12:51:57;-4.80;99.90
60033;DHT22;45905;50.570;10.428;2022-12-18T12:54:32;-4.70;99.90
60033;DHT22;45905;50.570;10.428;2022-12-18T12:57:37;-4.70;99.90
60033;DHT22;45905;50.570;10.428;2022-12-18T13:00:13;-4.70;99.90
60033;DHT22;45905;50.570;10.428;2022-12-18T13:05:51;-4.70;99.90
60033;DHT22;45905;50.570;10.428;2022-12-18T13:08:30;-4.70;99.90
60033;DHT22;45905;50.570;10.428;2022-12-18T13:11:02;-4.70;99.90
60033;DHT22;45905;50.570;10.428;2022-12-18T13:13:52;-4.60;99.90
60033;DHT22;45905;50.570;10.428;2022-12-18T13:16:23;-4.70;99.90
60033;DHT22;45905;50.570;10.428;2022-12-18T13:18:56;-4.60;99.90
60033;DHT22;45905;50.570;10.428;2022-12-18T13:21:31;-4.70;99.90
60033;DHT22;45905;50.570;10.428;2022-12-18T13:24:23;-4.70;99.90
60033;DHT22;45905;50.570;10.428;2022-12-18T13:26:53;-4.70;99.90
60033;DHT22;45905;50.570;10.428;2022-12-18T13:29:44;-4.70;99.90
60033;DHT22;45905;50.570;10.428;2022-12-18T13:32:24;-4.70;99.90
60033;DHT22;45905;50.570;10.428;2022-12-18T13:37:54;-4.60;99.90
60033;DHT22;45905;50.570;10.428;2022-12-18T13:46:02;-4.70;99.90
60033;DHT22;45905;50.570;10.428;2022-12-18T13:48:56;-4.70;99.90
60033;DHT22;45905;50.570;10.428;2022-12-18T13:51:28;-4.70;99.90
60033;DHT22;45905;50.570;10.428;2022-12-18T13:56:51;-4.70;99.90
60033;DHT22;45905;50.570;10.428;2022-12-18T13:59:23;-4.60;99.90
60033;DHT22;45905;50.570;10.428;2022-12-18T14:01:59;-4.70;99.90
60033;DHT22;45905;50.570;10.428;2022-12-18T14:04:34;-4.70;99.90
60033;DHT22;45905;50.570;10.428;2022-12-18T14:07:15;-4.70;99.90
60033;DHT22;45905;50.570;10.428;2022-12-18T14:09:56;-4.70;99.90
60033;DHT22;45905;50.570;10.428;2022-12-18T14:12:50;-4.70;99.90
60033;DHT22;45905;50.570;10.428;2022-12-18T14:15:30;-4.70;99.90
60033;DHT22;45905;50.570;10.428;2022-12-18T14:18:31;-4.70;99.90
60033;DHT22;45905;50.570;10.428;2022-12-18T14:21:05;-4.70;99.90
60033;DHT22;45905;50.570;10.428;2022-12-18T14:23:43;-4.80;99.90
60033;DHT22;45905;50.570;10.428;2022-12-18T14:26:28;-4.80;99.90
60033;DHT22;45905;50.570;10.428;2022-12-18T14:28:59;-4.80;99.90
60033;DHT22;45905;50.570;10.428;2022-12-18T14:31:30;-4.80;99.90
60033;DHT22;45905;50.570;10.428;2022-12-18T14:33:58;-4.80;99.90
60033;DHT22;45905;50.570;10.428;2022-12-18T14:36:29;-4.80;99.90
60033;DHT22;45905;50.570;10.428;2022-12-18T14:38:57;-4.80;99.90
60033;DHT22;45905;50.570;10.428;2022-12-18T14:41:26;-4.80;99.90
60033;DHT22;45905;50.570;10.428;2022-12-18T14:43:54;-4.80;99.90
60033;DHT22;45905;50.570;10.428;2022-12-18T14:46:42;-4.80;99.90
60033;DHT22;45905;50.570;10.428;2022-12-18T14:49:41;-4.70;99.90
60033;DHT22;45905;50.570;10.428;2022-12-18T14:52:27;-4.80;99.90
60033;DHT22;45905;50.570;10.428;2022-12-18T14:54:56;-4.80;99.90
60033;DHT22;45905;50.570;10.428;2022-12-18T14:57:31;-4.80;99.90
60033;DHT22;45905;50.570;10.428;2022-12-18T15:00:06;-4.80;99.90
60033;DHT22;45905;50.570;10.428;2022-12-18T15:02:42;-4.90;99.90
60033;DHT22;45905;50.570;10.428;2022-12-18T15:05:19;-4.90;99.90
60033;DHT22;45905;50.570;10.428;2022-12-18T15:07:53;-4.90;99.90
60033;DHT22;45905;50.570;10.428;2022-12-18T15:10:30;-5.00;99.90
60033;DHT22;45905;50.570;10.428;2022-12-18T15:20:45;-4.90;99.90
60033;DHT22;45905;50.570;10.428;2022-12-18T15:26:18;-5.00;99.90
60033;DHT22;45905;50.570;10.428;2022-12-18T15:28:54;-5.00;99.90
60033;DHT22;45905;50.570;10.428;2022-12-18T15:31:34;-5.00;99.90
60033;DHT22;45905;50.570;10.428;2022-12-18T15:34:10;-5.00;99.90
60033;DHT22;45905;50.570;10.428;2022-12-18T15:36:50;-5.10;99.90
60033;DHT22;45905;50.570;10.428;2022-12-18T15:39:17;-5.10;99.90
60033;DHT22;45905;50.570;10.428;2022-12-18T15:41:45;-5.10;99.90
60033;DHT22;45905;50.570;10.428;2022-12-18T15:44:31;-4.70;99.90
60033;DHT22;45905;50.570;10.428;2022-12-18T15:46:58;-5.10;99.90
60033;DHT22;45905;50.570;10.428;2022-12-18T15:49:25;-5.10;99.90
60033;DHT22;45905;50.570;10.428;2022-12-18T15:51:56;-5.20;99.90
60033;DHT22;45905;50.570;10.428;2022-12-18T15:54:26;-5.20;99.90
60033;DHT22;45905;50.570;10.428;2022-12-18T15:57:12;-5.20;99.90
60033;DHT22;45905;50.570;10.428;2022-12-18T15:59:53;-5.20;99.90
60033;DHT22;45905;50.570;10.428;2022-12-18T16:02:23;-5.20;99.90
60033;DHT22;45905;50.570;10.428;2022-12-18T16:04:52;-5.20;99.90
60033;DHT22;45905;50.570;10.428;2022-12-18T16:07:20;-5.20;99.90
60033;DHT22;45905;50.570;10.428;2022-12-18T16:09:52;-5.30;99.90
60033;DHT22;45905;50.570;10.428;2022-12-18T16:12:24;-5.30;99.90
60033;DHT22;45905;50.570;10.428;2022-12-18T16:14:52;-5.30;99.90
60033;DHT22;45905;50.570;10.428;2022-12-18T16:17:19;-5.30;99.90
60033;DHT22;45905;50.570;10.428;2022-12-18T16:19:46;-5.40;99.90
60033;DHT22;45905;50.570;10.428;2022-12-18T16:22:46;-4.70;99.90
60033;DHT22;45905;50.570;10.428;2022-12-18T16:25:34;-5.40;99.90
60033;DHT22;45905;50.570;10.428;2022-12-18T16:28:01;-5.10;99.90
60033;DHT22;45905;50.570;10.428;2022-12-18T16:30:30;-5.30;99.90
60033;DHT22;45905;50.570;10.428;2022-12-18T16:33:04;-5.40;99.90
60033;DHT22;45905;50.570;10.428;2022-12-18T16:35:33;-5.40;99.90
60033;DHT22;45905;50.570;10.428;2022-12-18T16:38:03;-5.40;99.90
60033;DHT22;45905;50.570;10.428;2022-12-18T16:40:32;-5.40;99.90
60033;DHT22;45905;50.570;10.428;2022-12-18T16:42:59;-5.40;99.90
60033;DHT22;45905;50.570;10.428;2022-12-18T16:45:26;-5.40;99.90
60033;DHT22;45905;50.570;10.428;2022-12-18T16:47:59;-5.40;99.90
60033;DHT22;45905;50.570;10.428;2022-12-18T16:50:26;-5.40;99.90
60033;DHT22;45905;50.570;10.428;2022-12-18T16:52:53;-5.40;99.90
60033;DHT22;45905;50.570;10.428;2022-12-18T16:55:21;-5.40;99.90
60033;DHT22;45905;50.570;10.428;2022-12-18T16:57:48;-5.40;99.90
60033;DHT22;45905;50.570;10.428;2022-12-18T17:00:15;-5.40;99.90
60033;DHT22;45905;50.570;10.428;2022-12-18T17:02:43;-5.40;99.90
60033;DHT22;45905;50.570;10.428;2022-12-18T17:05:12;-5.40;99.90
60033;DHT22;45905;50.570;10.428;2022-12-18T17:07:39;-5.50;99.90
60033;DHT22;45905;50.570;10.428;2022-12-18T17:10:07;-5.50;99.90
60033;DHT22;45905;50.570;10.428;2022-12-18T17:12:35;-5.40;99.90
60033;DHT22;45905;50.570;10.428;2022-12-18T17:15:03;-5.50;99.90
60033;DHT22;45905;50.570;10.428;2022-12-18T17:17:30;-5.40;99.90
60033;DHT22;45905;50.570;10.428;2022-12-18T17:19:57;-5.40;99.90
60033;DHT22;45905;50.570;10.428;2022-12-18T17:22:24;-5.40;99.90
60033;DHT22;45905;50.570;10.428;2022-12-18T17:24:51;-5.40;99.90
60033;DHT22;45905;50.570;10.428;2022-12-18T17:27:19;-5.40;99.90
60033;DHT22;45905;50.570;10.428;2022-12-18T17:29:46;-5.40;99.90
60033;DHT22;45905;50.570;10.428;2022-12-18T17:32:16;-5.40;99.90
60033;DHT22;45905;50.570;10.428;2022-12-18T17:34:43;-5.40;99.90
60033;DHT22;45905;50.570;10.428;2022-12-18T17:37:11;-5.40;99.90
60033;DHT22;45905;50.570;10.428;2022-12-18T17:39:38;-5.40;99.90
60033;DHT22;45905;50.570;10.428;2022-12-18T17:42:05;-5.40;99.90
60033;DHT22;45905;50.570;10.428;2022-12-18T17:44:35;-5.40;99.90
60033;DHT22;45905;50.570;10.428;2022-12-18T17:47:02;-5.40;99.90